Time,TemperatureF,DewpointF,PressureIn,WindDirection,WindDirectionDegrees,WindSpeedMPH,WindSpeedGustMPH,Humidity,HourlyPrecipIn,Conditions,Clouds,dailyrainin,SoftwareType,DateUTC
2013-04-16 00:00:00,40.8,38.4,30.41,SE,129,0.0,0.0,91,0.00,,,0.00,Wunderground v.1.15,2013-04-16 04:00:00,
2013-04-16 00:04:00,40.7,38.3,30.41,SE,129,0.0,0.0,91,0.00,,,0.00,Wunderground v.1.15,2013-04-16 04:04:00,
2013-04-16 00:06:00,40.7,38.3,30.41,SE,129,0.0,0.0,91,0.00,,,0.00,Wunderground v.1.15,2013-04-16 04:06:00,
2013-04-16 00:07:00,40.7,38.3,30.41,SE,129,0.0,0.0,91,0.00,,,0.00,Wunderground v.1.15,2013-04-16 04:07:00,
2013-04-16 00:12:00,40.6,38.5,30.41,SE,129,0.0,0.0,92,0.00,,,0.00,Wunderground v.1.15,2013-04-16 04:12:00,
2013-04-16 00:18:00,40.5,38.1,30.41,SE,129,0.0,0.0,91,0.00,,,0.00,Wunderground v.1.15,2013-04-16 04:18:00,
2013-04-16 00:23:00,40.4,38.3,30.41,SSE,156,0.0,0.0,92,0.00,,,0.00,Wunderground v.1.15,2013-04-16 04:23:00,
2013-04-16 00:29:00,40.3,38.2,30.41,SSE,161,0.0,1.0,92,0.00,,,0.00,Wunderground v.1.15,2013-04-16 04:29:00,
2013-04-16 00:34:00,40.2,38.1,30.41,SSE,161,0.0,0.0,92,0.00,,,0.00,Wunderground v.1.15,2013-04-16 04:34:00,
2013-04-16 00:39:00,40.2,38.3,30.41,SE,142,0.0,1.0,93,0.00,,,0.00,Wunderground v.1.15,2013-04-16 04:39:00,
2013-04-16 00:45:00,40.2,38.3,30.41,SE,142,0.0,0.0,93,0.00,,,0.00,Wunderground v.1.15,2013-04-16 04:45:00,
2013-04-16 00:50:00,40.2,38.3,30.41,SE,146,0.0,0.0,93,0.00,,,0.00,Wunderground v.1.15,2013-04-16 04:50:00,
2013-04-16 00:56:00,40.2,38.3,30.42,SSE,150,0.0,0.0,93,0.00,,,0.00,Wunderground v.1.15,2013-04-16 04:56:00,
2013-04-16 01:01:00,40.2,38.3,30.42,SSE,156,0.0,0.0,93,0.00,,,0.00,Wunderground v.1.15,2013-04-16 05:01:00,
2013-04-16 01:07:00,40.1,38.2,30.42,SSE,148,0.0,0.0,93,0.00,,,0.00,Wunderground v.1.15,2013-04-16 05:07:00,
2013-04-16 01:13:00,40.1,38.5,30.41,SE,146,0.0,0.0,94,0.00,,,0.00,Wunderground v.1.15,2013-04-16 05:13:00,
2013-04-16 01:18:00,40.1,38.5,30.42,SE,146,0.0,0.0,94,0.00,,,0.00,Wunderground v.1.15,2013-04-16 05:18:00,
2013-04-16 01:24:00,40.1,38.2,30.42,SE,146,0.0,0.0,93,0.00,,,0.00,Wunderground v.1.15,2013-04-16 05:24:00,
2013-04-16 01:29:00,39.9,38.0,30.41,SE,146,0.0,0.0,93,0.00,,,0.00,Wunderground v.1.15,2013-04-16 05:29:00,
2013-04-16 01:34:00,39.8,37.9,30.41,SE,146,0.0,0.0,93,0.00,,,0.00,Wunderground v.1.15,2013-04-16 05:34:00,
2013-04-16 01:40:00,39.7,37.8,30.41,SE,146,0.0,0.0,93,0.00,,,0.00,Wunderground v.1.15,2013-04-16 05:40:00,
2013-04-16 01:45:00,39.5,37.6,30.41,SE,146,0.0,0.0,93,0.00,,,0.00,Wunderground v.1.15,2013-04-16 05:45:00,
2013-04-16 01:50:00,39.3,37.4,30.41,SE,146,0.0,0.0,93,0.00,,,0.00,Wunderground v.1.15,2013-04-16 05:50:00,
2013-04-16 01:56:00,39.1,37.2,30.42,SE,146,0.0,0.0,93,0.00,,,0.00,Wunderground v.1.15,2013-04-16 05:56:00,
2013-04-16 02:02:00,38.8,36.9,30.41,SE,146,0.0,0.0,93,0.00,,,0.00,Wunderground v.1.15,2013-04-16 06:02:00,
2013-04-16 02:07:00,38.6,37.0,30.41,SE,146,0.0,0.0,94,0.00,,,0.00,Wunderground v.1.15,2013-04-16 06:07:00,
2013-04-16 02:12:00,38.4,36.8,30.41,SE,146,0.0,0.0,94,0.00,,,0.00,Wunderground v.1.15,2013-04-16 06:12:00,
2013-04-16 02:17:00,38.2,36.4,30.41,SE,146,0.0,0.0,93,0.00,,,0.00,Wunderground v.1.15,2013-04-16 06:17:00,
2013-04-16 02:23:00,38.0,36.4,30.41,SE,146,0.0,0.0,94,0.00,,,0.00,Wunderground v.1.15,2013-04-16 06:23:00,
2013-04-16 02:28:00,37.8,36.2,30.41,SE,146,0.0,0.0,94,0.00,,,0.00,Wunderground v.1.15,2013-04-16 06:28:00,
2013-04-16 02:33:00,37.7,36.1,30.41,SE,146,0.0,0.0,94,0.00,,,0.00,Wunderground v.1.15,2013-04-16 06:33:00,
2013-04-16 02:39:00,37.4,35.8,30.41,SE,146,0.0,0.0,94,0.00,,,0.00,Wunderground v.1.15,2013-04-16 06:39:00,
2013-04-16 02:44:00,37.1,35.5,30.41,SE,146,0.0,0.0,94,0.00,,,0.00,Wunderground v.1.15,2013-04-16 06:44:00,
2013-04-16 02:50:00,36.8,35.2,30.41,SE,146,0.0,0.0,94,0.00,,,0.00,Wunderground v.1.15,2013-04-16 06:50:00,
2013-04-16 02:55:00,36.6,35.0,30.41,SE,146,0.0,0.0,94,0.00,,,0.00,Wunderground v.1.15,2013-04-16 06:55:00,
2013-04-16 03:01:00,36.4,34.8,30.41,SE,146,0.0,0.0,94,0.00,,,0.00,Wunderground v.1.15,2013-04-16 07:01:00,
2013-04-16 03:07:00,36.4,35.1,30.41,SE,146,0.0,0.0,95,0.00,,,0.00,Wunderground v.1.15,2013-04-16 07:07:00,
2013-04-16 03:12:00,36.3,35.0,30.41,SE,146,0.0,0.0,95,0.00,,,0.00,Wunderground v.1.15,2013-04-16 07:12:00,
2013-04-16 03:18:00,36.2,34.9,30.41,SE,146,0.0,0.0,95,0.00,,,0.00,Wunderground v.1.15,2013-04-16 07:18:00,
2013-04-16 03:24:00,36.2,34.9,30.41,SE,146,0.0,0.0,95,0.00,,,0.00,Wunderground v.1.15,2013-04-16 07:24:00,
2013-04-16 03:29:00,36.3,35.0,30.41,SE,146,0.0,0.0,95,0.00,,,0.00,Wunderground v.1.15,2013-04-16 07:29:00,
2013-04-16 03:34:00,36.3,35.3,30.42,SE,146,0.0,0.0,96,0.00,,,0.00,Wunderground v.1.15,2013-04-16 07:34:00,
2013-04-16 03:39:00,36.3,35.3,30.42,SE,146,0.0,0.0,96,0.00,,,0.00,Wunderground v.1.15,2013-04-16 07:39:00,
2013-04-16 03:45:00,36.3,35.3,30.42,SE,146,0.0,0.0,96,0.00,,,0.00,Wunderground v.1.15,2013-04-16 07:45:00,
2013-04-16 03:50:00,36.2,34.9,30.42,SE,146,0.0,0.0,95,0.00,,,0.00,Wunderground v.1.15,2013-04-16 07:50:00,
2013-04-16 03:56:00,36.1,34.8,30.42,SE,146,0.0,0.0,95,0.00,,,0.00,Wunderground v.1.15,2013-04-16 07:56:00,
2013-04-16 04:01:00,36.1,35.1,30.42,SE,146,0.0,0.0,96,0.00,,,0.00,Wunderground v.1.15,2013-04-16 08:01:00,
2013-04-16 04:07:00,36.1,35.1,30.42,SE,146,0.0,0.0,96,0.00,,,0.00,Wunderground v.1.15,2013-04-16 08:07:00,
2013-04-16 04:12:00,36.2,35.2,30.42,SE,146,0.0,0.0,96,0.00,,,0.00,Wunderground v.1.15,2013-04-16 08:12:00,
2013-04-16 04:18:00,36.5,35.7,30.42,SE,146,0.0,0.0,97,0.00,,,0.00,Wunderground v.1.15,2013-04-16 08:18:00,
2013-04-16 04:23:00,36.8,36.0,30.42,SE,146,0.0,0.0,97,0.00,,,0.00,Wunderground v.1.15,2013-04-16 08:23:00,
2013-04-16 04:29:00,37.1,36.3,30.42,SE,144,0.0,0.0,97,0.00,,,0.00,Wunderground v.1.15,2013-04-16 08:29:00,
2013-04-16 04:34:00,37.4,36.6,30.42,SE,144,0.0,0.0,97,0.00,,,0.00,Wunderground v.1.15,2013-04-16 08:34:00,
2013-04-16 04:39:00,37.5,36.7,30.42,SE,144,0.0,0.0,97,0.00,,,0.00,Wunderground v.1.15,2013-04-16 08:39:00,
2013-04-16 04:45:00,37.6,36.8,30.42,SE,144,0.0,0.0,97,0.00,,,0.00,Wunderground v.1.15,2013-04-16 08:45:00,
2013-04-16 04:51:00,37.7,36.9,30.42,SE,143,0.0,0.0,97,0.00,,,0.00,Wunderground v.1.15,2013-04-16 08:51:00,
2013-04-16 04:57:00,37.9,37.1,30.42,SSE,161,0.0,2.0,97,0.00,,,0.00,Wunderground v.1.15,2013-04-16 08:57:00,
2013-04-16 05:03:00,37.9,37.1,30.42,SSE,161,0.0,0.0,97,0.00,,,0.00,Wunderground v.1.15,2013-04-16 09:03:00,
2013-04-16 05:09:00,38.1,37.3,30.42,SSE,156,0.0,0.0,97,0.00,,,0.00,Wunderground v.1.15,2013-04-16 09:09:00,
2013-04-16 05:15:00,38.5,37.7,30.42,SSE,150,0.0,0.0,97,0.00,,,0.00,Wunderground v.1.15,2013-04-16 09:15:00,
2013-04-16 05:20:00,38.6,37.8,30.42,SE,130,0.0,0.0,97,0.00,,,0.00,Wunderground v.1.15,2013-04-16 09:20:00,
2013-04-16 05:26:00,38.8,38.0,30.42,ESE,114,0.0,1.0,97,0.00,,,0.00,Wunderground v.1.15,2013-04-16 09:26:00,
2013-04-16 05:31:00,39.0,38.2,30.41,East,101,1.0,1.0,97,0.00,,,0.00,Wunderground v.1.15,2013-04-16 09:31:00,
2013-04-16 05:37:00,39.3,38.8,30.41,SE,141,1.0,2.0,98,0.00,,,0.00,Wunderground v.1.15,2013-04-16 09:37:00,
2013-04-16 05:43:00,39.8,39.3,30.42,SE,133,2.0,2.0,98,0.00,,,0.00,Wunderground v.1.15,2013-04-16 09:43:00,
2013-04-16 05:49:00,40.1,39.6,30.41,SE,127,2.0,6.0,98,0.00,,,0.00,Wunderground v.1.15,2013-04-16 09:49:00,
2013-04-16 05:54:00,40.3,39.8,30.41,ESE,119,1.0,3.0,98,0.00,,,0.00,Wunderground v.1.15,2013-04-16 09:54:00,
2013-04-16 06:00:00,40.5,40.0,30.41,SE,138,1.0,3.0,98,0.00,,,0.00,Wunderground v.1.15,2013-04-16 10:00:00,
2013-04-16 06:05:00,40.6,40.1,30.41,ESE,115,1.0,3.0,98,0.00,,,0.00,Wunderground v.1.15,2013-04-16 10:05:00,
2013-04-16 06:10:00,40.7,40.2,30.42,SE,142,2.0,2.0,98,0.00,,,0.00,Wunderground v.1.15,2013-04-16 10:10:00,
2013-04-16 06:16:00,40.6,39.8,30.42,East,90,1.0,2.0,97,0.00,,,0.00,Wunderground v.1.15,2013-04-16 10:16:00,
2013-04-16 06:21:00,40.5,39.7,30.42,ESE,117,2.0,2.0,97,0.00,,,0.00,Wunderground v.1.15,2013-04-16 10:21:00,
2013-04-16 06:27:00,40.6,39.8,30.42,ESE,113,2.0,2.0,97,0.00,,,0.00,Wunderground v.1.15,2013-04-16 10:27:00,
2013-04-16 06:32:00,40.8,40.0,30.42,SE,135,2.0,2.0,97,0.00,,,0.00,Wunderground v.1.15,2013-04-16 10:32:00,
2013-04-16 06:37:00,41.0,40.2,30.42,ESE,110,2.0,4.0,97,0.00,,,0.00,Wunderground v.1.15,2013-04-16 10:37:00,
2013-04-16 06:43:00,41.2,40.7,30.42,ESE,111,2.0,2.0,98,0.00,,,0.00,Wunderground v.1.15,2013-04-16 10:43:00,
2013-04-16 06:49:00,41.4,40.9,30.42,ESE,105,2.0,3.0,98,0.00,,,0.00,Wunderground v.1.15,2013-04-16 10:49:00,
2013-04-16 06:55:00,41.6,41.1,30.42,ENE,76,2.0,4.0,98,0.00,,,0.00,Wunderground v.1.15,2013-04-16 10:55:00,
2013-04-16 07:01:00,41.9,41.4,30.42,ESE,109,2.0,2.0,98,0.00,,,0.00,Wunderground v.1.15,2013-04-16 11:01:00,
2013-04-16 07:06:00,42.0,41.5,30.42,ESE,117,2.0,3.0,98,0.00,,,0.00,Wunderground v.1.15,2013-04-16 11:06:00,
2013-04-16 07:11:00,42.3,41.8,30.42,ESE,121,2.0,2.0,98,0.00,,,0.00,Wunderground v.1.15,2013-04-16 11:11:00,
2013-04-16 07:17:00,42.6,42.1,30.42,East,87,2.0,3.0,98,0.00,,,0.00,Wunderground v.1.15,2013-04-16 11:17:00,
2013-04-16 07:22:00,42.8,42.3,30.42,ESE,105,2.0,3.0,98,0.00,,,0.00,Wunderground v.1.15,2013-04-16 11:22:00,
2013-04-16 07:28:00,43.1,42.6,30.42,ESE,121,2.0,3.0,98,0.00,,,0.00,Wunderground v.1.15,2013-04-16 11:28:00,
2013-04-16 07:33:00,43.3,42.8,30.42,SE,132,2.0,3.0,98,0.00,,,0.00,Wunderground v.1.15,2013-04-16 11:33:00,
2013-04-16 07:39:00,43.7,42.9,30.42,ESE,114,3.0,4.0,97,0.00,,,0.00,Wunderground v.1.15,2013-04-16 11:39:00,
2013-04-16 07:44:00,44.0,42.7,30.42,SE,144,3.0,5.0,95,0.00,,,0.00,Wunderground v.1.15,2013-04-16 11:44:00,
2013-04-16 07:50:00,44.6,42.7,30.42,SE,139,3.0,3.0,93,0.00,,,0.00,Wunderground v.1.15,2013-04-16 11:50:00,
2013-04-16 07:55:00,45.5,42.7,30.42,ESE,114,3.0,4.0,90,0.00,,,0.00,Wunderground v.1.15,2013-04-16 11:55:00,
2013-04-16 08:01:00,46.5,42.5,30.42,ESE,106,2.0,2.0,86,0.00,,,0.00,Wunderground v.1.15,2013-04-16 12:01:00,
2013-04-16 08:06:00,47.3,42.7,30.42,ESE,112,3.0,5.0,84,0.00,,,0.00,Wunderground v.1.15,2013-04-16 12:06:00,
2013-04-16 08:12:00,48.1,41.6,30.42,SE,127,3.0,6.0,78,0.00,,,0.00,Wunderground v.1.15,2013-04-16 12:12:00,
2013-04-16 08:18:00,48.6,41.7,30.42,ESE,113,4.0,6.0,77,0.00,,,0.00,Wunderground v.1.15,2013-04-16 12:18:00,
2013-04-16 08:23:00,49.1,41.9,30.42,ESE,112,4.0,5.0,76,0.00,,,0.00,Wunderground v.1.15,2013-04-16 12:23:00,
2013-04-16 08:29:00,49.6,41.3,30.42,SE,126,4.0,8.0,73,0.00,,,0.00,Wunderground v.1.15,2013-04-16 12:29:00,
2013-04-16 08:35:00,50.1,42.1,30.42,SE,130,4.0,4.0,74,0.00,,,0.00,Wunderground v.1.15,2013-04-16 12:35:00,
2013-04-16 08:40:00,50.4,42.4,30.41,ESE,114,3.0,5.0,74,0.00,,,0.00,Wunderground v.1.15,2013-04-16 12:40:00,
2013-04-16 08:46:00,50.8,42.5,30.41,ENE,78,3.0,5.0,73,0.00,,,0.00,Wunderground v.1.15,2013-04-16 12:46:00,
2013-04-16 08:51:00,51.4,43.0,30.41,SE,129,3.0,5.0,73,0.00,,,0.00,Wunderground v.1.15,2013-04-16 12:51:00,
2013-04-16 08:56:00,51.7,42.6,30.41,SE,145,3.0,7.0,71,0.00,,,0.00,Wunderground v.1.15,2013-04-16 12:56:00,
2013-04-16 09:02:00,51.6,42.5,30.41,SE,142,4.0,5.0,71,0.00,,,0.00,Wunderground v.1.15,2013-04-16 13:02:00,
2013-04-16 09:07:00,51.8,43.1,30.41,ESE,122,4.0,5.0,72,0.00,,,0.00,Wunderground v.1.15,2013-04-16 13:07:00,
2013-04-16 09:13:00,51.9,43.2,30.41,SE,134,3.0,5.0,72,0.00,,,0.00,Wunderground v.1.15,2013-04-16 13:13:00,
2013-04-16 09:18:00,52.2,42.7,30.42,ESE,107,3.0,9.0,70,0.00,,,0.00,Wunderground v.1.15,2013-04-16 13:18:00,
2013-04-16 09:24:00,52.6,43.8,30.42,SE,131,3.0,4.0,72,0.00,,,0.00,Wunderground v.1.15,2013-04-16 13:24:00,
2013-04-16 09:30:00,53.1,43.9,30.42,SE,128,3.0,3.0,71,0.00,,,0.00,Wunderground v.1.15,2013-04-16 13:30:00,
2013-04-16 09:35:00,53.4,43.9,30.42,ESE,123,3.0,4.0,70,0.00,,,0.00,Wunderground v.1.15,2013-04-16 13:35:00,
2013-04-16 09:40:00,53.7,44.1,30.42,ESE,105,3.0,5.0,70,0.00,,,0.00,Wunderground v.1.15,2013-04-16 13:40:00,
2013-04-16 09:45:00,54.0,42.9,30.41,East,96,3.0,5.0,66,0.00,,,0.00,Wunderground v.1.15,2013-04-16 13:45:00,
2013-04-16 09:51:00,54.8,43.7,30.41,SE,142,2.0,5.0,66,0.00,,,0.00,Wunderground v.1.15,2013-04-16 13:51:00,
2013-04-16 09:56:00,55.3,44.1,30.41,ESE,113,2.0,5.0,66,0.00,,,0.00,Wunderground v.1.15,2013-04-16 13:56:00,
2013-04-16 10:02:00,56.0,43.2,30.41,ESE,105,2.0,2.0,62,0.00,,,0.00,Wunderground v.1.15,2013-04-16 14:02:00,
2013-04-16 10:08:00,56.2,42.9,30.41,ESE,121,2.0,5.0,61,0.00,,,0.00,Wunderground v.1.15,2013-04-16 14:08:00,
2013-04-16 10:13:00,56.4,42.7,30.41,SSE,153,3.0,7.0,60,0.00,,,0.00,Wunderground v.1.15,2013-04-16 14:13:00,
2013-04-16 10:19:00,56.2,40.2,30.41,South,181,3.0,7.0,55,0.00,,,0.00,Wunderground v.1.15,2013-04-16 14:19:00,
2013-04-16 10:24:00,56.2,40.2,30.41,South,179,3.0,9.0,55,0.00,,,0.00,Wunderground v.1.15,2013-04-16 14:24:00,
2013-04-16 10:29:00,55.9,40.4,30.41,East,101,4.0,9.0,56,0.00,,,0.00,Wunderground v.1.15,2013-04-16 14:29:00,
2013-04-16 10:35:00,55.6,40.6,30.41,SE,126,4.0,8.0,57,0.00,,,0.00,Wunderground v.1.15,2013-04-16 14:35:00,
2013-04-16 10:40:00,55.5,41.0,30.41,East,93,5.0,5.0,58,0.00,,,0.00,Wunderground v.1.15,2013-04-16 14:40:00,
2013-04-16 10:46:00,55.3,41.2,30.41,SSE,163,5.0,6.0,59,0.00,,,0.00,Wunderground v.1.15,2013-04-16 14:46:00,
2013-04-16 10:51:00,55.8,42.5,30.41,ENE,78,4.0,5.0,61,0.00,,,0.00,Wunderground v.1.15,2013-04-16 14:51:00,
2013-04-16 10:57:00,56.2,43.3,30.40,NNE,24,4.0,5.0,62,0.00,,,0.00,Wunderground v.1.15,2013-04-16 14:57:00,
2013-04-16 11:02:00,56.6,44.1,30.40,SSE,168,4.0,5.0,63,0.00,,,0.00,Wunderground v.1.15,2013-04-16 15:02:00,
2013-04-16 11:08:00,56.8,44.7,30.40,SE,135,4.0,5.0,64,0.00,,,0.00,Wunderground v.1.15,2013-04-16 15:08:00,
2013-04-16 11:13:00,56.9,45.3,30.40,SE,134,4.0,7.0,65,0.00,,,0.00,Wunderground v.1.15,2013-04-16 15:13:00,
2013-04-16 11:18:00,56.8,45.2,30.39,East,81,4.0,7.0,65,0.00,,,0.00,Wunderground v.1.15,2013-04-16 15:18:00,
2013-04-16 11:24:00,57.2,45.5,30.39,ESE,109,4.0,6.0,65,0.00,,,0.00,Wunderground v.1.15,2013-04-16 15:24:00,
2013-04-16 11:29:00,57.5,45.0,30.39,ESE,104,3.0,6.0,63,0.00,,,0.00,Wunderground v.1.15,2013-04-16 15:29:00,
2013-04-16 11:35:00,58.0,45.5,30.39,SSE,164,4.0,7.0,63,0.00,,,0.00,Wunderground v.1.15,2013-04-16 15:35:00,
2013-04-16 11:40:00,58.4,45.4,30.39,West,268,4.0,5.0,62,0.00,,,0.00,Wunderground v.1.15,2013-04-16 15:40:00,
2013-04-16 11:46:00,58.9,45.5,30.39,SSE,162,3.0,5.0,61,0.00,,,0.00,Wunderground v.1.15,2013-04-16 15:46:00,
2013-04-16 11:51:00,59.3,44.1,30.38,WSW,240,4.0,5.0,57,0.00,,,0.00,Wunderground v.1.15,2013-04-16 15:51:00,
2013-04-16 11:57:00,58.9,42.8,30.37,SSE,164,5.0,7.0,55,0.00,,,0.00,Wunderground v.1.15,2013-04-16 15:57:00,
2013-04-16 12:02:00,58.9,44.1,30.37,ESE,123,4.0,12.0,58,0.00,,,0.00,Wunderground v.1.15,2013-04-16 16:02:00,
2013-04-16 12:07:00,58.7,43.0,30.36,ESE,105,4.0,12.0,56,0.00,,,0.00,Wunderground v.1.15,2013-04-16 16:07:00,
2013-04-16 12:13:00,58.3,43.1,30.36,South,181,5.0,7.0,57,0.00,,,0.00,Wunderground v.1.15,2013-04-16 16:13:00,
2013-04-16 12:19:00,58.7,43.0,30.36,WSW,240,5.0,9.0,56,0.00,,,0.00,Wunderground v.1.15,2013-04-16 16:19:00,
2013-04-16 12:25:00,59.0,42.4,30.36,SSE,156,4.0,7.0,54,0.00,,,0.00,Wunderground v.1.15,2013-04-16 16:25:00,
2013-04-16 12:30:00,59.6,43.9,30.35,East,101,4.0,5.0,56,0.00,,,0.00,Wunderground v.1.15,2013-04-16 16:30:00,
2013-04-16 12:36:00,60.1,41.4,30.35,SW,227,4.0,7.0,50,0.00,,,0.00,Wunderground v.1.15,2013-04-16 16:36:00,
2013-04-16 12:42:00,60.0,41.8,30.34,SSE,161,5.0,5.0,51,0.00,,,0.00,Wunderground v.1.15,2013-04-16 16:42:00,
2013-04-16 12:48:00,60.5,41.2,30.35,South,177,3.0,6.0,49,0.00,,,0.00,Wunderground v.1.15,2013-04-16 16:48:00,
2013-04-16 12:53:00,60.5,42.8,30.34,SSW,210,4.0,6.0,52,0.00,,,0.00,Wunderground v.1.15,2013-04-16 16:53:00,
2013-04-16 12:58:00,61.0,42.7,30.34,East,84,4.0,8.0,51,0.00,,,0.00,Wunderground v.1.15,2013-04-16 16:58:00,
2013-04-16 13:03:00,60.7,41.4,30.34,South,178,4.0,13.0,49,0.00,,,0.00,Wunderground v.1.15,2013-04-16 17:03:00,
2013-04-16 13:08:00,60.2,41.5,30.34,SE,137,5.0,13.0,50,0.00,,,0.00,Wunderground v.1.15,2013-04-16 17:08:00,
2013-04-16 13:14:00,60.2,42.0,30.34,SE,145,5.0,7.0,51,0.00,,,0.00,Wunderground v.1.15,2013-04-16 17:14:00,
2013-04-16 13:19:00,60.5,42.3,30.34,ESE,119,4.0,9.0,51,0.00,,,0.00,Wunderground v.1.15,2013-04-16 17:19:00,
2013-04-16 13:24:00,60.4,42.2,30.33,ESE,121,4.0,5.0,51,0.00,,,0.00,Wunderground v.1.15,2013-04-16 17:24:00,
2013-04-16 13:30:00,60.8,41.5,30.33,South,170,4.0,4.0,49,0.00,,,0.00,Wunderground v.1.15,2013-04-16 17:30:00,
2013-04-16 13:35:00,61.5,42.7,30.33,SE,132,3.0,4.0,50,0.00,,,0.00,Wunderground v.1.15,2013-04-16 17:35:00,
2013-04-16 13:41:00,62.1,41.6,30.33,SSE,159,3.0,6.0,47,0.00,,,0.00,Wunderground v.1.15,2013-04-16 17:41:00,
2013-04-16 13:46:00,61.3,40.3,30.32,SW,223,5.0,9.0,46,0.00,,,0.00,Wunderground v.1.15,2013-04-16 17:46:00,
2013-04-16 13:51:00,60.8,41.0,30.32,SSE,151,5.0,7.0,48,0.00,,,0.00,Wunderground v.1.15,2013-04-16 17:51:00,
2013-04-16 13:57:00,60.7,40.3,30.31,SSE,158,4.0,7.0,47,0.00,,,0.00,Wunderground v.1.15,2013-04-16 17:57:00,
2013-04-16 14:02:00,60.1,39.2,30.31,South,184,5.0,8.0,46,0.00,,,0.00,Wunderground v.1.15,2013-04-16 18:02:00,
2013-04-16 14:08:00,59.8,40.1,30.31,SSE,147,5.0,8.0,48,0.00,,,0.00,Wunderground v.1.15,2013-04-16 18:08:00,
2013-04-16 14:13:00,59.9,39.6,30.31,SE,127,5.0,10.0,47,0.00,,,0.00,Wunderground v.1.15,2013-04-16 18:13:00,
2013-04-16 14:19:00,59.8,40.1,30.31,ESE,103,6.0,10.0,48,0.00,,,0.00,Wunderground v.1.15,2013-04-16 18:19:00,
2013-04-16 14:25:00,60.3,41.0,30.31,SSE,161,5.0,11.0,49,0.00,,,0.00,Wunderground v.1.15,2013-04-16 18:25:00,
2013-04-16 14:30:00,60.3,41.0,30.32,South,184,5.0,5.0,49,0.00,,,0.00,Wunderground v.1.15,2013-04-16 18:30:00,
2013-04-16 14:36:00,59.9,40.1,30.32,SSE,168,6.0,11.0,48,0.00,,,0.00,Wunderground v.1.15,2013-04-16 18:36:00,
2013-04-16 14:41:00,59.6,40.9,30.32,South,186,6.0,7.0,50,0.00,,,0.00,Wunderground v.1.15,2013-04-16 18:41:00,
2013-04-16 14:47:00,59.4,41.3,30.31,East,86,5.0,10.0,51,0.00,,,0.00,Wunderground v.1.15,2013-04-16 18:47:00,
2013-04-16 14:52:00,59.5,40.8,30.31,SSE,167,6.0,9.0,50,0.00,,,0.00,Wunderground v.1.15,2013-04-16 18:52:00,
2013-04-16 14:58:00,59.1,41.5,30.31,ESE,104,6.0,12.0,52,0.00,,,0.00,Wunderground v.1.15,2013-04-16 18:58:00,
2013-04-16 15:03:00,59.0,41.4,30.31,SSE,155,6.0,9.0,52,0.00,,,0.00,Wunderground v.1.15,2013-04-16 19:03:00,
2013-04-16 15:09:00,58.4,43.2,30.30,ESE,113,6.0,10.0,57,0.00,,,0.00,Wunderground v.1.15,2013-04-16 19:09:00,
2013-04-16 15:15:00,58.1,43.8,30.30,ESE,116,7.0,9.0,59,0.00,,,0.00,Wunderground v.1.15,2013-04-16 19:15:00,
2013-04-16 15:20:00,57.9,44.5,30.30,ESE,113,7.0,7.0,61,0.00,,,0.00,Wunderground v.1.15,2013-04-16 19:20:00,
2013-04-16 15:25:00,58.1,44.7,30.30,West,263,6.0,9.0,61,0.00,,,0.00,Wunderground v.1.15,2013-04-16 19:25:00,
2013-04-16 15:31:00,58.7,45.3,30.29,East,88,5.0,8.0,61,0.00,,,0.00,Wunderground v.1.15,2013-04-16 19:31:00,
2013-04-16 15:36:00,58.8,45.4,30.28,SE,142,5.0,8.0,61,0.00,,,0.00,Wunderground v.1.15,2013-04-16 19:36:00,
2013-04-16 15:41:00,58.6,45.2,30.29,SE,132,6.0,6.0,61,0.00,,,0.00,Wunderground v.1.15,2013-04-16 19:41:00,
2013-04-16 15:46:00,58.6,45.2,30.28,NNW,327,6.0,10.0,61,0.00,,,0.00,Wunderground v.1.15,2013-04-16 19:46:00,
2013-04-16 15:51:00,58.7,45.7,30.28,SSE,148,5.0,7.0,62,0.00,,,0.00,Wunderground v.1.15,2013-04-16 19:51:00,
2013-04-16 15:57:00,59.0,45.1,30.28,South,171,6.0,12.0,60,0.00,,,0.00,Wunderground v.1.15,2013-04-16 19:57:00,
2013-04-16 16:03:00,58.3,44.9,30.28,South,188,7.0,8.0,61,0.00,,,0.00,Wunderground v.1.15,2013-04-16 20:03:00,
2013-04-16 16:09:00,58.2,45.7,30.28,ESE,119,6.0,10.0,63,0.00,,,0.00,Wunderground v.1.15,2013-04-16 20:09:00,
2013-04-16 16:14:00,58.3,46.2,30.28,SSE,161,5.0,11.0,64,0.00,,,0.00,Wunderground v.1.15,2013-04-16 20:14:00,
2013-04-16 16:20:00,58.2,46.5,30.28,SE,126,6.0,6.0,65,0.00,,,0.00,Wunderground v.1.15,2013-04-16 20:20:00,
2013-04-16 16:25:00,58.1,46.4,30.28,ENE,74,6.0,8.0,65,0.00,,,0.00,Wunderground v.1.15,2013-04-16 20:25:00,
2013-04-16 16:31:00,58.3,46.6,30.28,East,99,5.0,6.0,65,0.00,,,0.00,Wunderground v.1.15,2013-04-16 20:31:00,
2013-04-16 16:37:00,58.5,46.8,30.27,NNE,20,5.0,9.0,65,0.00,,,0.00,Wunderground v.1.15,2013-04-16 20:37:00,
2013-04-16 16:43:00,58.3,46.6,30.27,SE,138,3.0,4.0,65,0.00,,,0.00,Wunderground v.1.15,2013-04-16 20:43:00,
2013-04-16 16:48:00,58.1,46.8,30.27,South,179,3.0,6.0,66,0.00,,,0.00,Wunderground v.1.15,2013-04-16 20:48:00,
2013-04-16 16:54:00,58.1,47.2,30.26,SSE,163,2.0,3.0,67,0.00,,,0.00,Wunderground v.1.15,2013-04-16 20:54:00,
2013-04-16 16:59:00,58.1,47.2,30.26,SSE,156,3.0,7.0,67,0.00,,,0.00,Wunderground v.1.15,2013-04-16 20:59:00,
2013-04-16 17:05:00,57.9,47.0,30.26,South,180,4.0,7.0,67,0.00,,,0.00,Wunderground v.1.15,2013-04-16 21:05:00,
2013-04-16 17:10:00,57.4,46.5,30.25,SSW,200,4.0,4.0,67,0.00,,,0.00,Wunderground v.1.15,2013-04-16 21:10:00,
2013-04-16 17:16:00,56.8,46.3,30.25,SE,127,4.0,11.0,68,0.00,,,0.00,Wunderground v.1.15,2013-04-16 21:16:00,
2013-04-16 17:21:00,56.1,46.1,30.24,SSE,157,5.0,7.0,69,0.00,,,0.00,Wunderground v.1.15,2013-04-16 21:21:00,
2013-04-16 17:27:00,56.0,46.4,30.24,SE,134,5.0,7.0,70,0.00,,,0.00,Wunderground v.1.15,2013-04-16 21:27:00,
2013-04-16 17:32:00,56.3,46.3,30.24,East,95,5.0,9.0,69,0.00,,,0.00,Wunderground v.1.15,2013-04-16 21:32:00,
2013-04-16 17:37:00,56.4,46.4,30.24,South,174,5.0,9.0,69,0.00,,,0.00,Wunderground v.1.15,2013-04-16 21:37:00,
2013-04-16 17:43:00,56.5,46.4,30.24,SSE,156,5.0,5.0,69,0.00,,,0.00,Wunderground v.1.15,2013-04-16 21:43:00,
2013-04-16 17:48:00,56.7,46.6,30.24,South,178,4.0,8.0,69,0.00,,,0.00,Wunderground v.1.15,2013-04-16 21:48:00,
2013-04-16 17:54:00,56.7,46.6,30.23,SE,125,4.0,4.0,69,0.00,,,0.00,Wunderground v.1.15,2013-04-16 21:54:00,
2013-04-16 17:59:00,56.5,46.8,30.23,SSW,207,3.0,7.0,70,0.00,,,0.00,Wunderground v.1.15,2013-04-16 21:59:00,
2013-04-16 18:05:00,55.8,46.5,30.22,ESE,108,4.0,8.0,71,0.00,,,0.00,Wunderground v.1.15,2013-04-16 22:05:00,
2013-04-16 18:11:00,55.0,46.5,30.22,SSW,206,4.0,4.0,73,0.00,,,0.00,Wunderground v.1.15,2013-04-16 22:11:00,
2013-04-16 18:16:00,54.6,46.5,30.22,SE,134,4.0,7.0,74,0.00,,,0.00,Wunderground v.1.15,2013-04-16 22:16:00,
2013-04-16 18:22:00,54.2,46.4,30.22,South,186,4.0,6.0,75,0.00,,,0.00,Wunderground v.1.15,2013-04-16 22:22:00,
2013-04-16 18:27:00,54.0,46.3,30.22,South,183,4.0,8.0,75,0.00,,,0.00,Wunderground v.1.15,2013-04-16 22:27:00,
2013-04-16 18:32:00,53.9,46.5,30.22,SW,217,4.0,4.0,76,0.00,,,0.00,Wunderground v.1.15,2013-04-16 22:32:00,
2013-04-16 18:38:00,53.8,46.4,30.21,SSW,205,4.0,7.0,76,0.00,,,0.00,Wunderground v.1.15,2013-04-16 22:38:00,
2013-04-16 18:43:00,53.7,46.3,30.20,SE,125,5.0,6.0,76,0.00,,,0.00,Wunderground v.1.15,2013-04-16 22:43:00,
2013-04-16 18:48:00,53.7,46.3,30.20,South,186,5.0,6.0,76,0.00,,,0.00,Wunderground v.1.15,2013-04-16 22:48:00,
2013-04-16 18:54:00,53.6,46.6,30.18,SSE,148,5.0,7.0,77,0.00,,,0.00,Wunderground v.1.15,2013-04-16 22:54:00,
2013-04-16 18:59:00,53.6,46.2,30.18,SSE,160,5.0,11.0,76,0.00,,,0.00,Wunderground v.1.15,2013-04-16 22:59:00,
2013-04-16 19:04:00,53.7,46.3,30.18,SSE,161,4.0,7.0,76,0.00,,,0.00,Wunderground v.1.15,2013-04-16 23:04:00,
2013-04-16 19:10:00,53.6,46.6,30.18,West,259,5.0,6.0,77,0.00,,,0.00,Wunderground v.1.15,2013-04-16 23:10:00,
2013-04-16 19:16:00,53.6,46.6,30.17,SSE,155,4.0,12.0,77,0.00,,,0.00,Wunderground v.1.15,2013-04-16 23:16:00,
2013-04-16 19:21:00,53.5,46.5,30.17,South,169,4.0,4.0,77,0.00,,,0.00,Wunderground v.1.15,2013-04-16 23:21:00,
2013-04-16 19:27:00,53.3,46.6,30.17,East,84,3.0,7.0,78,0.00,,,0.00,Wunderground v.1.15,2013-04-16 23:27:00,
2013-04-16 19:32:00,53.3,46.6,30.17,SE,144,3.0,9.0,78,0.00,,,0.00,Wunderground v.1.15,2013-04-16 23:32:00,
2013-04-16 19:37:00,53.2,46.5,30.17,SSE,148,4.0,10.0,78,0.00,,,0.00,Wunderground v.1.15,2013-04-16 23:37:00,
2013-04-16 19:43:00,53.1,46.4,30.17,SSE,163,4.0,6.0,78,0.00,,,0.00,Wunderground v.1.15,2013-04-16 23:43:00,
2013-04-16 19:49:00,53.0,46.7,30.17,East,99,4.0,14.0,79,0.00,,,0.00,Wunderground v.1.15,2013-04-16 23:49:00,
2013-04-16 19:54:00,52.9,46.6,30.17,SSW,194,4.0,5.0,79,0.00,,,0.00,Wunderground v.1.15,2013-04-16 23:54:00,
2013-04-16 20:00:00,53.0,46.7,30.17,SE,136,4.0,4.0,79,0.00,,,0.00,Wunderground v.1.15,2013-04-17 00:00:00,
2013-04-16 20:05:00,53.1,46.8,30.18,SSW,208,4.0,11.0,79,0.00,,,0.00,Wunderground v.1.15,2013-04-17 00:05:00,
2013-04-16 20:10:00,53.1,46.8,30.18,South,175,4.0,4.0,79,0.00,,,0.00,Wunderground v.1.15,2013-04-17 00:10:00,
2013-04-16 20:16:00,53.0,46.7,30.18,SSE,148,4.0,9.0,79,0.00,,,0.00,Wunderground v.1.15,2013-04-17 00:16:00,
2013-04-16 20:21:00,53.0,46.7,30.18,SSW,211,4.0,5.0,79,0.00,,,0.00,Wunderground v.1.15,2013-04-17 00:21:00,
2013-04-16 20:26:00,53.0,47.0,30.18,SSE,157,4.0,7.0,80,0.00,,,0.00,Wunderground v.1.15,2013-04-17 00:26:00,
2013-04-16 20:32:00,53.0,47.0,30.17,SSW,205,4.0,6.0,80,0.00,,,0.00,Wunderground v.1.15,2013-04-17 00:32:00,
2013-04-16 20:37:00,53.0,47.0,30.17,SSE,153,4.0,7.0,80,0.00,,,0.00,Wunderground v.1.15,2013-04-17 00:37:00,
2013-04-16 20:43:00,53.1,47.1,30.17,SSE,159,5.0,10.0,80,0.00,,,0.00,Wunderground v.1.15,2013-04-17 00:43:00,
2013-04-16 20:48:00,53.2,47.2,30.17,South,175,5.0,10.0,80,0.00,,,0.00,Wunderground v.1.15,2013-04-17 00:48:00,
2013-04-16 20:54:00,53.2,46.9,30.17,SSE,147,5.0,7.0,79,0.00,,,0.00,Wunderground v.1.15,2013-04-17 00:54:00,
2013-04-16 20:59:00,53.2,46.9,30.17,SSW,211,4.0,7.0,79,0.00,,,0.00,Wunderground v.1.15,2013-04-17 00:59:00,
2013-04-16 21:04:00,53.3,47.0,30.18,SSE,149,5.0,5.0,79,0.00,,,0.00,Wunderground v.1.15,2013-04-17 01:04:00,
2013-04-16 21:10:00,53.3,47.0,30.18,East,82,4.0,6.0,79,0.00,,,0.00,Wunderground v.1.15,2013-04-17 01:10:00,
2013-04-16 21:16:00,53.4,47.0,30.18,SW,228,5.0,7.0,79,0.00,,,0.00,Wunderground v.1.15,2013-04-17 01:16:00,
2013-04-16 21:21:00,53.3,47.3,30.19,South,190,4.0,7.0,80,0.00,,,0.00,Wunderground v.1.15,2013-04-17 01:21:00,
2013-04-16 21:26:00,53.1,47.4,30.18,South,189,4.0,7.0,81,0.00,,,0.00,Wunderground v.1.15,2013-04-17 01:26:00,
2013-04-16 21:32:00,52.8,47.5,30.19,SSW,196,4.0,5.0,82,0.00,,,0.00,Wunderground v.1.15,2013-04-17 01:32:00,
2013-04-16 21:37:00,52.6,47.6,30.19,SSE,165,4.0,9.0,83,0.00,,,0.00,Wunderground v.1.15,2013-04-17 01:37:00,
2013-04-16 21:43:00,52.4,47.7,30.17,West,279,5.0,10.0,84,0.00,,,0.00,Wunderground v.1.15,2013-04-17 01:43:00,
2013-04-16 21:48:00,52.4,47.7,30.17,SW,216,5.0,10.0,84,0.00,,,0.00,Wunderground v.1.15,2013-04-17 01:48:00,
2013-04-16 21:54:00,52.4,47.7,30.17,SSW,213,5.0,7.0,84,0.00,,,0.00,Wunderground v.1.15,2013-04-17 01:54:00,
2013-04-16 21:59:00,52.6,47.9,30.17,SSW,213,6.0,8.0,84,0.00,,,0.00,Wunderground v.1.15,2013-04-17 01:59:00,
2013-04-16 22:04:00,52.7,48.0,30.17,SSE,165,6.0,9.0,84,0.00,,,0.00,Wunderground v.1.15,2013-04-17 02:04:00,
2013-04-16 22:10:00,52.7,48.0,30.17,East,81,6.0,6.0,84,0.00,,,0.00,Wunderground v.1.15,2013-04-17 02:10:00,
2013-04-16 22:15:00,52.6,47.9,30.17,SSW,192,4.0,6.0,84,0.00,,,0.00,Wunderground v.1.15,2013-04-17 02:15:00,
2013-04-16 22:21:00,52.5,47.8,30.16,SW,215,5.0,7.0,84,0.00,,,0.00,Wunderground v.1.15,2013-04-17 02:21:00,
2013-04-16 22:27:00,52.5,47.8,30.16,SSE,153,6.0,10.0,84,0.00,,,0.00,Wunderground v.1.15,2013-04-17 02:27:00,
2013-04-16 22:32:00,52.6,47.9,30.16,SSW,213,6.0,16.0,84,0.00,,,0.00,Wunderground v.1.15,2013-04-17 02:32:00,
2013-04-16 22:37:00,52.5,48.1,30.17,SSW,212,5.0,16.0,85,0.00,,,0.00,Wunderground v.1.15,2013-04-17 02:37:00,
2013-04-16 22:42:00,52.5,48.1,30.16,SSE,167,5.0,13.0,85,0.00,,,0.00,Wunderground v.1.15,2013-04-17 02:42:00,
2013-04-16 22:48:00,52.5,48.1,30.15,SSW,202,5.0,13.0,85,0.00,,,0.00,Wunderground v.1.15,2013-04-17 02:48:00,
2013-04-16 22:53:00,52.4,48.0,30.16,South,187,5.0,7.0,85,0.00,,,0.00,Wunderground v.1.15,2013-04-17 02:53:00,
2013-04-16 22:59:00,52.4,48.3,30.16,WSW,250,6.0,15.0,86,0.00,,,0.00,Wunderground v.1.15,2013-04-17 02:59:00,
2013-04-16 23:05:00,52.4,48.3,30.16,SSE,163,6.0,14.0,86,0.00,,,0.00,Wunderground v.1.15,2013-04-17 03:05:00,
2013-04-16 23:10:00,52.3,48.2,30.16,East,93,6.0,6.0,86,0.00,,,0.00,Wunderground v.1.15,2013-04-17 03:10:00,
2013-04-16 23:16:00,52.2,48.4,30.16,South,187,5.0,7.0,87,0.00,,,0.00,Wunderground v.1.15,2013-04-17 03:16:00,
2013-04-16 23:21:00,52.1,48.3,30.16,West,266,5.0,7.0,87,0.00,,,0.00,Wunderground v.1.15,2013-04-17 03:21:00,
2013-04-16 23:27:00,51.9,48.5,30.16,WSW,254,4.0,7.0,88,0.00,,,0.00,Wunderground v.1.15,2013-04-17 03:27:00,
2013-04-16 23:32:00,51.7,48.3,30.15,SSW,201,4.0,6.0,88,0.00,,,0.00,Wunderground v.1.15,2013-04-17 03:32:00,
2013-04-16 23:37:00,51.6,48.5,30.15,SE,130,5.0,10.0,89,0.00,,,0.00,Wunderground v.1.15,2013-04-17 03:37:00,
2013-04-16 23:43:00,51.5,48.7,30.14,SW,217,5.0,8.0,90,0.00,,,0.00,Wunderground v.1.15,2013-04-17 03:43:00,
2013-04-16 23:48:00,51.4,48.9,30.14,SSW,206,4.0,8.0,91,0.00,,,0.00,Wunderground v.1.15,2013-04-17 03:48:00,
2013-04-16 23:53:00,51.3,48.8,30.14,SW,236,4.0,5.0,91,0.00,,,0.00,Wunderground v.1.15,2013-04-17 03:53:00,
2013-04-16 23:59:00,51.2,49.0,30.15,WNW,292,3.0,7.0,92,0.00,,,0.00,Wunderground v.1.15,2013-04-17 03:59:00,